createdAt,value
2023-02-16T00:02:42.713Z,11.23
2023-02-16T00:06:44.814Z,10.38
2023-02-16T00:11:06.905Z,10.77
2023-02-16T00:15:20.470Z,12.20
2023-02-16T00:19:26.702Z,12.63
2023-02-16T00:23:28.767Z,11.70
2023-02-16T00:27:30.837Z,10.52
2023-02-16T00:31:33.140Z,11.50
2023-02-16T00:35:35.407Z,11.38
2023-02-16T00:39:38.813Z,11.60
2023-02-16T00:43:41.181Z,14.63
2023-02-16T00:47:46.987Z,14.40
2023-02-16T00:51:50.481Z,15.50
2023-02-16T00:55:53.752Z,15.87
2023-02-16T01:00:06.605Z,15.00
2023-02-16T01:04:13.175Z,14.70
2023-02-16T01:08:36.013Z,14.90
2023-02-16T01:12:39.624Z,14.77
2023-02-16T01:16:43.493Z,13.77
2023-02-16T01:20:46.986Z,13.70
2023-02-16T01:24:49.304Z,14.85
2023-02-16T01:28:51.423Z,12.68
2023-02-16T01:32:53.948Z,11.57
2023-02-16T01:36:55.989Z,12.65
2023-02-16T01:41:29.415Z,13.10
2023-02-16T01:45:38.314Z,13.30
2023-02-16T01:49:40.520Z,13.90
2023-02-16T01:53:58.247Z,12.40
2023-02-16T01:58:06.912Z,12.60
2023-02-16T02:02:17.052Z,12.85
2023-02-16T02:06:28.282Z,14.13
2023-02-16T02:11:08.361Z,13.25
2023-02-16T02:15:12.741Z,13.05
2023-02-16T02:23:33.016Z,9.02
2023-02-16T02:27:54.233Z,9.73
2023-02-16T02:32:27.512Z,9.48
2023-02-16T02:36:45.565Z,8.25
2023-02-16T02:40:55.708Z,8.15
2023-02-16T02:45:09.201Z,9.18
2023-02-16T02:49:11.718Z,10.00
2023-02-16T02:53:16.151Z,8.90
2023-02-16T03:01:54.133Z,8.48
2023-02-16T03:06:11.044Z,8.25
2023-02-16T03:10:37.352Z,8.85
2023-02-16T03:14:57.967Z,8.88
2023-02-16T03:19:23.125Z,9.70
2023-02-16T03:23:44.211Z,9.90
2023-02-16T03:28:06.565Z,10.52
2023-02-16T03:32:20.303Z,11.35
2023-02-16T03:37:03.135Z,12.77
2023-02-16T03:41:06.891Z,12.63
2023-02-16T03:45:09.461Z,12.50
2023-02-16T03:49:12.144Z,12.60
2023-02-16T03:53:15.497Z,13.35
2023-02-16T03:57:18.579Z,14.18
2023-02-16T04:01:21.292Z,11.20
2023-02-16T04:05:23.491Z,12.82
2023-02-16T04:09:25.828Z,12.23
2023-02-16T04:13:28.321Z,11.05
2023-02-16T04:17:30.533Z,13.18
2023-02-16T04:21:32.633Z,14.18
2023-02-16T04:25:34.977Z,13.77
2023-02-16T04:29:37.125Z,14.10
2023-02-16T04:33:39.268Z,14.20
2023-02-16T04:37:41.560Z,14.30
2023-02-16T04:41:43.741Z,14.60
2023-02-16T04:45:45.785Z,11.57
2023-02-16T04:49:50.140Z,10.68
2023-02-16T04:53:52.452Z,9.85
2023-02-16T04:57:54.519Z,10.00
2023-02-16T05:01:57.526Z,9.43
2023-02-16T05:06:00.171Z,8.65
2023-02-16T05:10:02.347Z,7.97
2023-02-16T05:14:22.972Z,8.30
2023-02-16T05:18:25.116Z,8.93
2023-02-16T05:22:28.975Z,9.60
2023-02-16T05:26:34.488Z,9.25
2023-02-16T05:30:37.227Z,9.40
2023-02-16T05:34:39.437Z,9.48
2023-02-16T05:38:41.634Z,9.60
2023-02-16T05:43:14.455Z,10.30
2023-02-16T05:47:25.408Z,9.85
2023-02-16T05:51:30.941Z,10.65
2023-02-16T05:55:33.164Z,9.30
2023-02-16T05:59:35.381Z,9.75
2023-02-16T06:03:38.081Z,9.85
2023-02-16T06:07:40.360Z,11.05
2023-02-16T06:11:43.230Z,11.90
2023-02-16T06:16:11.001Z,12.30
2023-02-16T06:20:13.318Z,12.57
2023-02-16T06:24:16.117Z,12.50
2023-02-16T06:28:18.534Z,12.45
2023-02-16T06:32:21.068Z,12.20
2023-02-16T06:36:24.116Z,12.90
2023-02-16T06:40:26.340Z,14.07
2023-02-16T06:44:28.721Z,14.93
2023-02-16T06:48:30.804Z,15.38
2023-02-16T06:52:33.424Z,13.30
2023-02-16T06:56:37.750Z,13.73
2023-02-16T07:04:42.484Z,12.73
2023-02-16T07:08:44.699Z,14.15
2023-02-16T07:12:47.752Z,15.18
2023-02-16T07:16:51.233Z,16.25
2023-02-16T07:20:53.848Z,17.63
2023-02-16T07:24:57.647Z,16.75
2023-02-16T07:29:00.036Z,17.23
2023-02-16T07:33:02.191Z,16.90
2023-02-16T07:37:05.294Z,16.00
2023-02-16T07:41:09.764Z,13.45
2023-02-16T07:45:12.781Z,12.13
2023-02-16T07:49:15.263Z,14.68
2023-02-16T07:53:17.463Z,12.88
2023-02-16T07:57:19.522Z,11.93
2023-02-16T08:01:22.271Z,13.43
2023-02-16T08:05:24.468Z,10.88
2023-02-16T08:09:26.707Z,11.90
2023-02-16T08:13:28.796Z,12.50
2023-02-16T08:17:30.980Z,12.38
2023-02-16T08:21:34.443Z,11.15
2023-02-16T08:25:37.483Z,10.85
2023-02-16T08:29:39.894Z,11.52
2023-02-16T08:33:42.410Z,12.25
2023-02-16T08:37:44.501Z,11.93
2023-02-16T08:41:49.118Z,11.55
2023-02-16T08:45:51.891Z,11.65
2023-02-16T08:49:53.968Z,12.50
2023-02-16T08:53:58.558Z,13.00
2023-02-16T08:58:01.524Z,11.85
2023-02-16T09:02:04.041Z,12.07
2023-02-16T09:06:06.726Z,11.23
2023-02-16T09:10:09.237Z,10.43
2023-02-16T09:14:11.324Z,11.05
2023-02-16T09:18:14.695Z,10.25
2023-02-16T09:22:16.833Z,10.20
2023-02-16T09:26:20.603Z,10.27
2023-02-16T09:30:23.076Z,9.83
2023-02-16T09:34:27.468Z,10.02
2023-02-16T09:38:29.935Z,10.30
2023-02-16T09:42:39.958Z,11.18
2023-02-16T09:46:42.957Z,10.60
2023-02-16T09:50:54.890Z,12.15
2023-02-16T09:55:00.710Z,11.07
2023-02-16T09:59:33.370Z,11.90
2023-02-16T10:04:06.524Z,11.25
2023-02-16T10:08:15.138Z,11.75
2023-02-16T10:12:32.254Z,12.80
2023-02-16T10:16:42.707Z,13.98
2023-02-16T10:20:49.718Z,14.38
2023-02-16T10:25:02.289Z,13.13
2023-02-16T10:29:14.259Z,13.95
2023-02-16T10:33:41.332Z,13.35
2023-02-16T10:38:04.597Z,14.15
2023-02-16T10:42:47.105Z,13.52
2023-02-16T10:46:59.442Z,13.52
2023-02-16T10:51:16.837Z,14.05
2023-02-16T10:55:18.974Z,14.40
2023-02-16T10:59:42.774Z,14.30
2023-02-16T11:03:50.617Z,13.60
2023-02-16T11:08:01.778Z,15.13
2023-02-16T11:12:16.881Z,14.35
2023-02-16T11:16:22.380Z,16.33
2023-02-16T11:20:45.213Z,14.77
2023-02-16T11:24:47.253Z,15.73
2023-02-16T11:28:50.742Z,15.18
2023-02-16T11:32:53.124Z,15.60
2023-02-16T11:37:27.185Z,16.30
2023-02-16T11:41:33.483Z,17.45
2023-02-16T11:45:36.731Z,15.60
2023-02-16T11:49:41.854Z,15.50
2023-02-16T11:53:46.012Z,16.88
2023-02-16T12:02:19.453Z,15.13
2023-02-16T12:06:44.888Z,14.13
2023-02-16T12:11:10.114Z,14.55
2023-02-16T12:15:24.902Z,12.40
2023-02-16T12:19:27.032Z,12.18
2023-02-16T12:23:44.575Z,13.90
2023-02-16T12:28:00.579Z,13.60
2023-02-16T12:32:30.561Z,13.57
2023-02-16T12:36:46.373Z,14.63
2023-02-16T12:41:18.920Z,13.73
2023-02-16T12:45:25.148Z,13.80
2023-02-16T12:49:36.419Z,14.07
2023-02-16T12:54:01.208Z,15.15
2023-02-16T12:58:16.015Z,13.10
2023-02-16T13:02:46.904Z,13.80
2023-02-16T13:07:18.229Z,13.13
2023-02-16T13:11:43.750Z,13.73
2023-02-16T13:16:02.010Z,10.35
2023-02-16T13:20:05.054Z,10.82
2023-02-16T13:24:36.528Z,10.20
2023-02-16T13:29:03.530Z,10.07
2023-02-16T13:33:11.601Z,9.68
2023-02-16T13:37:24.020Z,9.95
2023-02-16T13:41:47.904Z,10.00
2023-02-16T13:45:54.180Z,9.57
2023-02-16T13:50:29.617Z,9.75
2023-02-16T13:54:38.099Z,9.88
2023-02-16T13:58:41.004Z,10.43
2023-02-16T14:03:02.701Z,9.63
2023-02-16T14:07:07.179Z,9.10
2023-02-16T14:11:10.959Z,7.88
2023-02-16T14:15:20.762Z,8.07
2023-02-16T14:19:26.091Z,7.72
2023-02-16T14:23:34.590Z,7.55
2023-02-16T14:28:02.844Z,7.43
2023-02-16T14:32:25.420Z,6.97
2023-02-16T14:36:29.193Z,7.35
2023-02-16T14:40:47.850Z,7.07
2023-02-16T14:44:56.530Z,7.28
2023-02-16T14:49:17.220Z,7.32
2023-02-16T14:53:58.073Z,6.10
2023-02-16T14:58:30.709Z,7.25
2023-02-16T15:02:39.620Z,7.25
2023-02-16T15:06:46.133Z,7.45
2023-02-16T15:10:58.502Z,7.05
2023-02-16T15:15:04.620Z,6.78
2023-02-16T15:19:17.796Z,7.15
2023-02-16T15:23:32.504Z,7.38
2023-02-16T15:31:38.407Z,7.00
2023-02-16T15:35:42.791Z,8.43
2023-02-16T15:40:00.809Z,6.93
2023-02-16T15:44:28.564Z,8.85
2023-02-16T15:48:34.566Z,8.05
2023-02-16T15:52:38.285Z,8.15
2023-02-16T15:56:48.416Z,9.37
2023-02-16T16:00:50.941Z,8.98
2023-02-16T16:04:56.872Z,9.23
2023-02-16T16:08:59.902Z,11.02
2023-02-16T16:13:09.077Z,11.00
2023-02-16T16:17:16.857Z,11.77
2023-02-16T16:21:34.311Z,12.23
2023-02-16T16:25:37.029Z,10.80
2023-02-16T16:29:47.894Z,10.85
2023-02-16T16:34:04.944Z,10.93
2023-02-16T16:38:27.692Z,10.10
2023-02-16T16:42:31.217Z,10.65
2023-02-16T16:46:33.455Z,10.30
2023-02-16T16:50:39.720Z,10.45
2023-02-16T16:54:43.006Z,9.27
2023-02-16T16:58:50.602Z,8.93
2023-02-16T17:02:53.330Z,10.35
2023-02-16T17:06:55.582Z,21.02
2023-02-16T17:10:58.170Z,10.13
2023-02-16T17:15:02.437Z,10.32
2023-02-16T17:19:04.642Z,9.37
2023-02-16T17:23:06.826Z,9.02
2023-02-16T17:27:09.595Z,9.35
2023-02-16T17:31:11.728Z,10.07
2023-02-16T17:35:14.880Z,10.38
2023-02-16T17:39:16.954Z,10.90
2023-02-16T17:43:21.479Z,11.02
2023-02-16T17:51:26.791Z,9.23
2023-02-16T17:55:29.104Z,10.52
2023-02-16T17:59:34.140Z,9.93
2023-02-16T18:03:36.415Z,11.32
2023-02-16T18:07:38.745Z,11.82
2023-02-16T18:11:41.010Z,10.23
2023-02-16T18:15:47.815Z,8.13
2023-02-16T18:19:49.942Z,8.77
2023-02-16T18:23:52.107Z,11.52
2023-02-16T18:27:54.468Z,9.75
2023-02-16T18:31:57.237Z,9.57
2023-02-16T18:35:59.433Z,8.20
2023-02-16T18:40:01.907Z,9.05
2023-02-16T18:44:04.678Z,8.60
2023-02-16T18:48:07.380Z,7.80
2023-02-16T18:52:10.219Z,8.40
2023-02-16T18:56:12.830Z,8.77
2023-02-16T19:00:16.448Z,8.10
2023-02-16T19:04:18.555Z,9.53
2023-02-16T19:08:20.666Z,8.90
2023-02-16T19:12:22.784Z,8.63
2023-02-16T19:16:25.185Z,8.95
2023-02-16T19:20:29.107Z,8.20
2023-02-16T19:24:31.519Z,8.32
2023-02-16T19:28:34.274Z,10.13
2023-02-16T19:32:37.041Z,10.48
2023-02-16T19:36:39.784Z,9.75
2023-02-16T19:40:41.925Z,8.93
2023-02-16T19:44:44.060Z,11.60
2023-02-16T19:48:46.412Z,11.15
2023-02-16T19:52:48.461Z,10.80
2023-02-16T19:56:53.717Z,10.25
2023-02-16T20:00:56.025Z,12.73
2023-02-16T20:04:58.256Z,11.82
2023-02-16T20:09:01.644Z,13.45
2023-02-16T20:13:03.752Z,12.40
2023-02-16T20:17:06.267Z,14.32
2023-02-16T20:21:12.142Z,16.80
2023-02-16T20:25:14.738Z,14.85
2023-02-16T20:29:16.951Z,12.73
2023-02-16T20:33:20.995Z,20.02
2023-02-16T20:37:23.131Z,31.02
2023-02-16T20:41:25.266Z,18.13
2023-02-16T20:45:27.412Z,15.00
2023-02-16T20:49:29.579Z,12.68
2023-02-16T20:53:33.638Z,14.27
2023-02-16T20:57:38.820Z,15.57
2023-02-16T21:01:52.339Z,12.75
2023-02-16T21:05:55.918Z,11.25
2023-02-16T21:09:58.858Z,11.57
2023-02-16T21:14:02.484Z,27.98
2023-02-16T21:18:05.254Z,16.10
2023-02-16T21:22:07.601Z,19.08
2023-02-16T21:26:10.072Z,12.85
2023-02-16T21:30:12.900Z,18.33
2023-02-16T21:34:15.336Z,12.77
2023-02-16T21:38:18.164Z,15.43
2023-02-16T21:42:20.276Z,14.25
2023-02-16T21:46:23.068Z,14.27
2023-02-16T21:50:25.970Z,15.48
2023-02-16T21:54:48.157Z,16.25
2023-02-16T21:58:50.352Z,17.25
2023-02-16T22:02:52.569Z,16.17
2023-02-16T22:06:56.143Z,16.35
2023-02-16T22:11:10.574Z,15.90
2023-02-16T22:15:12.716Z,15.95
2023-02-16T22:19:17.513Z,17.30
2023-02-16T22:23:19.695Z,16.67
2023-02-16T22:27:21.822Z,15.80
2023-02-16T22:31:26.150Z,15.60
2023-02-16T22:39:31.503Z,15.55
2023-02-16T22:43:34.660Z,15.20
2023-02-16T22:47:36.816Z,14.88
2023-02-16T22:51:39.715Z,15.88
2023-02-16T22:55:42.065Z,25.58
2023-02-16T22:59:44.202Z,15.95
2023-02-16T23:03:48.630Z,15.10
2023-02-16T23:07:50.732Z,14.77
2023-02-16T23:11:53.004Z,14.05
2023-02-16T23:15:56.160Z,14.45
2023-02-16T23:19:58.852Z,15.90
2023-02-16T23:24:01.217Z,15.38
2023-02-16T23:28:05.103Z,16.10
2023-02-16T23:32:07.289Z,14.67
2023-02-16T23:36:10.194Z,14.95
2023-02-16T23:40:13.429Z,15.65
2023-02-16T23:44:16.057Z,12.60
2023-02-16T23:48:18.340Z,13.10
2023-02-16T23:52:20.459Z,12.88
2023-02-16T23:56:28.388Z,11.48
